Time;durP1;ratioP1;P1;durP2;ratioP2;P2;SDS_P1;SDS_P2;PMS_P1;PMS_P2;Temp;Humidity;BMP_temperature;BMP_pressure;BME280_temperature;BME280_humidity;BME280_pressure;Samples;Min_cycle;Max_cycle;Signal;HPM_P1;HPM_P2
2023/10/26 00:01:35;;;;;;;26.17;9.25;;;;;;;9.06;100.00;100559.63;4919692;28;20058;-59
2023/10/26 00:04:06;;;;;;;19.17;8.77;;;;;;;9.09;100.00;100557.88;4929175;28;20070;-59
2023/10/26 00:06:36;;;;;;;20.55;9.27;;;;;;;9.16;100.00;100559.53;4919825;28;20490;-58
2023/10/26 00:09:08;;;;;;;22.08;9.20;;;;;;;9.27;100.00;100557.75;4913694;28;20067;-59
2023/10/26 00:11:39;;;;;;;24.45;9.60;;;;;;;9.35;100.00;100548.13;4900596;28;20094;-59
2023/10/26 00:14:09;;;;;;;23.75;8.57;;;;;;;9.39;100.00;100557.69;4910096;28;20051;-59
2023/10/26 00:16:39;;;;;;;20.98;9.20;;;;;;;9.45;100.00;100547.19;4900175;28;20074;-59
2023/10/26 00:19:10;;;;;;;26.20;9.90;;;;;;;9.69;100.00;100550.50;4909981;28;20135;-58
2023/10/26 00:21:41;;;;;;;28.42;10.15;;;;;;;9.81;100.00;100547.78;4899858;28;20047;-58
2023/10/26 00:24:13;;;;;;;26.80;8.50;;;;;;;9.93;100.00;100539.84;4909857;28;20060;-58
2023/10/26 00:26:44;;;;;;;28.60;10.20;;;;;;;10.04;100.00;100531.06;4918946;28;20141;-58
2023/10/26 00:29:14;;;;;;;31.30;9.82;;;;;;;10.16;100.00;100538.75;4940874;28;20058;-60
2023/10/26 00:31:44;;;;;;;24.02;11.63;;;;;;;10.12;100.00;100530.06;4948197;28;20061;-58
2023/10/26 00:34:15;;;;;;;34.88;12.13;;;;;;;10.13;100.00;100536.16;4938421;28;20046;-58
2023/10/26 00:36:45;;;;;;;26.33;11.27;;;;;;;9.99;100.00;100527.63;4944696;28;20047;-59
2023/10/26 00:39:17;;;;;;;31.70;12.48;;;;;;;9.98;100.00;100528.47;4919016;28;20576;-57
2023/10/26 00:41:51;;;;;;;24.52;10.88;;;;;;;9.93;100.00;100538.97;4928256;28;20058;-58
2023/10/26 00:44:22;;;;;;;33.35;11.55;;;;;;;9.89;100.00;100532.06;4918617;28;20837;-58
2023/10/26 00:46:55;;;;;;;30.67;11.48;;;;;;;9.79;100.00;100514.75;4928865;28;20139;-58
2023/10/26 00:49:26;;;;;;;34.47;12.07;;;;;;;9.94;100.00;100535.50;4919165;28;20078;-60
2023/10/26 00:52:01;;;;;;;32.42;11.85;;;;;;;9.76;100.00;100515.66;4928449;28;20047;-60
2023/10/26 00:54:33;;;;;;;32.10;11.60;;;;;;;10.00;100.00;100527.59;4918389;28;20134;-60
2023/10/26 00:57:04;;;;;;;35.45;11.48;;;;;;;10.05;100.00;100523.19;4928137;28;20069;-60
2023/10/26 00:59:36;;;;;;;29.67;11.40;;;;;;;9.93;100.00;100503.31;4918039;28;20801;-60
2023/10/26 01:02:07;;;;;;;34.95;11.57;;;;;;;10.33;100.00;100521.19;4928579;28;20083;-60
2023/10/26 01:04:37;;;;;;;33.90;11.68;;;;;;;10.51;100.00;100506.19;4918557;28;20051;-60
2023/10/26 01:07:07;;;;;;;30.00;11.50;;;;;;;10.56;100.00;100525.28;4928037;28;20377;-59
2023/10/26 01:09:39;;;;;;;29.25;11.88;;;;;;;10.58;100.00;100528.72;4918388;28;20047;-60
2023/10/26 01:12:10;;;;;;;32.88;12.38;;;;;;;10.66;100.00;100532.13;4927963;28;20503;-60
2023/10/26 01:14:41;;;;;;;30.33;12.65;;;;;;;10.75;100.00;100521.53;4918219;28;20062;-59
2023/10/26 01:17:13;;;;;;;31.92;12.73;;;;;;;10.68;100.00;100519.88;4928137;28;20051;-60
2023/10/26 01:19:44;;;;;;;36.10;13.98;;;;;;;10.65;100.00;100513.84;4917398;28;20043;-59
2023/10/26 01:22:16;;;;;;;39.85;13.57;;;;;;;10.85;100.00;100517.06;4918099;28;20139;-61
2023/10/26 01:24:46;;;;;;;31.00;13.25;;;;;;;10.97;100.00;100505.56;4927483;28;20053;-59
2023/10/26 01:27:17;;;;;;;32.97;14.25;;;;;;;11.03;100.00;100505.47;4929397;28;20054;-59
2023/10/26 01:29:47;;;;;;;33.55;13.38;;;;;;;11.04;100.00;100509.84;4946557;28;20058;-60
2023/10/26 01:32:17;;;;;;;33.20;13.32;;;;;;;11.13;100.00;100507.09;4937013;28;20148;-59
2023/10/26 01:34:48;;;;;;;30.75;14.07;;;;;;;11.33;100.00;100503.28;4930322;28;20054;-59
2023/10/26 01:37:20;;;;;;;35.25;14.13;;;;;;;11.44;100.00;100485.69;4917302;28;20072;-60
2023/10/26 01:39:50;;;;;;;33.28;13.43;;;;;;;11.53;100.00;100496.00;4927405;28;20050;-59
2023/10/26 01:42:21;;;;;;;31.25;13.90;;;;;;;11.65;100.00;100495.75;4917688;28;20062;-60
2023/10/26 01:44:51;;;;;;;34.10;13.27;;;;;;;11.72;100.00;100466.88;4927431;28;20071;-60
2023/10/26 01:47:21;;;;;;;37.28;14.05;;;;;;;11.86;100.00;100491.06;4917763;28;20405;-59
2023/10/26 01:49:52;;;;;;;35.40;14.25;;;;;;;11.86;100.00;100484.09;4927833;28;20548;-60
2023/10/26 01:52:24;;;;;;;32.60;13.00;;;;;;;11.89;100.00;100472.72;4917662;28;20138;-59
2023/10/26 01:54:54;;;;;;;28.20;12.55;;;;;;;11.86;100.00;100477.97;4927161;28;20051;-60
2023/10/26 01:57:24;;;;;;;31.13;13.15;;;;;;;11.97;100.00;100476.03;4917829;28;20055;-59
2023/10/26 01:59:55;;;;;;;30.65;13.35;;;;;;;12.05;100.00;100468.91;4925174;28;20055;-60
2023/10/26 02:02:26;;;;;;;40.65;16.35;;;;;;;11.94;100.00;100455.16;4898898;28;20055;-59
2023/10/26 02:04:56;;;;;;;38.88;15.50;;;;;;;12.00;100.00;100457.66;4909014;28;20043;-59
2023/10/26 02:07:28;;;;;;;32.70;14.50;;;;;;;12.01;100.00;100451.53;4898487;28;20052;-59
2023/10/26 02:10:00;;;;;;;34.22;15.38;;;;;;;12.06;100.00;100428.72;4908376;28;20154;-60
2023/10/26 02:12:30;;;;;;;32.53;15.55;;;;;;;12.30;100.00;100442.22;4898595;28;20087;-59
2023/10/26 02:15:00;;;;;;;35.08;16.90;;;;;;;12.44;100.00;100440.19;4908077;28;20154;-59
2023/10/26 02:17:31;;;;;;;39.30;19.63;;;;;;;12.64;100.00;100441.50;4898826;28;20054;-59
2023/10/26 02:20:01;;;;;;;36.88;19.67;;;;;;;12.77;100.00;100432.47;4908398;28;20064;-60
2023/10/26 02:22:33;;;;;;;43.75;23.52;;;;;;;12.91;100.00;100432.16;4898406;28;20497;-60
2023/10/26 02:25:04;;;;;;;40.13;21.30;;;;;;;12.98;100.00;100432.88;4907810;28;20047;-59
2023/10/26 02:27:36;;;;;;;45.88;22.42;;;;;;;12.90;100.00;100426.06;4930554;28;20110;-59
2023/10/26 02:30:07;;;;;;;39.53;20.58;;;;;;;12.95;100.00;100426.81;4936711;28;20150;-59
2023/10/26 02:32:38;;;;;;;39.20;17.60;;;;;;;13.04;100.00;100424.88;4917266;28;20066;-60
2023/10/26 02:35:09;;;;;;;34.40;16.90;;;;;;;12.95;100.00;100384.84;4927340;28;20154;-60
2023/10/26 02:37:41;;;;;;;31.17;16.80;;;;;;;13.15;100.00;100417.59;4916353;28;20047;-59
2023/10/26 02:40:12;;;;;;;33.08;16.25;;;;;;;13.11;100.00;100414.19;4926702;28;20295;-60
2023/10/26 02:42:43;;;;;;;38.20;18.40;;;;;;;13.19;100.00;100407.88;4916648;28;20059;-59
2023/10/26 02:45:13;;;;;;;35.53;20.10;;;;;;;13.19;100.00;100406.13;4925362;28;20290;-60
2023/10/26 02:47:43;;;;;;;31.55;16.35;;;;;;;13.22;100.00;100398.16;4926488;28;20355;-59
2023/10/26 02:50:15;;;;;;;26.87;14.23;;;;;;;13.24;100.00;100401.63;4917072;28;20794;-60
2023/10/26 02:52:47;;;;;;;29.73;15.88;;;;;;;13.26;100.00;100404.22;4926934;28;20283;-60
2023/10/26 02:55:17;;;;;;;31.33;15.55;;;;;;;13.34;100.00;100391.78;4917073;28;20137;-59
2023/10/26 02:57:48;;;;;;;28.90;14.17;;;;;;;13.40;100.00;100388.13;4926436;28;20063;-59
2023/10/26 03:00:19;;;;;;;35.10;15.57;;;;;;;13.37;100.00;100387.31;4917137;28;20590;-60
2023/10/26 03:02:49;;;;;;;28.43;14.23;;;;;;;13.27;100.00;100383.19;4926392;28;20293;-59
2023/10/26 03:05:20;;;;;;;29.70;15.97;;;;;;;13.21;100.00;100385.97;4916638;28;20287;-60
2023/10/26 03:07:52;;;;;;;27.40;15.43;;;;;;;13.19;100.00;100374.63;4926768;28;20279;-60
2023/10/26 03:10:23;;;;;;;26.67;14.98;;;;;;;13.25;100.00;100369.22;4916714;28;20301;-59
2023/10/26 03:12:53;;;;;;;32.10;16.27;;;;;;;13.29;100.00;100368.28;4926248;28;20047;-59
2023/10/26 03:15:24;;;;;;;34.50;16.90;;;;;;;13.35;100.00;100362.91;4916702;28;20629;-59
2023/10/26 03:17:54;;;;;;;31.97;15.97;;;;;;;13.45;100.00;100362.63;4926414;28;20749;-60
2023/10/26 03:20:25;;;;;;;32.63;16.77;;;;;;;13.54;100.00;100351.88;4916703;28;20287;-59
2023/10/26 03:22:56;;;;;;;28.00;15.80;;;;;;;13.80;100.00;100349.41;4928315;28;20367;-58
2023/10/26 03:25:27;;;;;;;32.93;16.43;;;;;;;13.98;100.00;100339.28;4920310;28;20309;-58
2023/10/26 03:27:57;;;;;;;34.03;18.23;;;;;;;14.07;100.00;100341.63;4947023;28;20278;-58
2023/10/26 03:30:28;;;;;;;32.40;16.37;;;;;;;14.03;100.00;100342.63;4939512;28;20628;-58
2023/10/26 03:32:58;;;;;;;27.93;16.90;;;;;;;13.93;100.00;100339.41;4949173;28;20298;-58
2023/10/26 03:35:29;;;;;;;34.33;19.60;;;;;;;13.85;100.00;100335.28;4939504;28;20282;-58
2023/10/26 03:38:01;;;;;;;38.90;18.40;;;;;;;13.78;100.00;100330.22;4949344;28;20278;-59
2023/10/26 03:40:31;;;;;;;31.40;18.47;;;;;;;13.86;100.00;100326.50;4939284;28;20410;-58
2023/10/26 03:43:01;;;;;;;37.03;20.03;;;;;;;14.03;100.00;100329.50;4948555;28;20305;-58
2023/10/26 03:45:32;;;;;;;35.77;18.90;;;;;;;14.10;100.00;100310.00;4939178;28;20633;-58
2023/10/26 03:48:01;;;;;;;33.43;18.40;;;;;;;14.05;100.00;100306.66;4948910;28;20729;-59
2023/10/26 03:50:31;;;;;;;33.05;19.40;;;;;;;14.07;100.00;100299.59;4939099;28;20330;-58
2023/10/26 03:53:03;;;;;;;39.40;18.80;;;;;;;14.10;100.00;100299.47;4935389;28;20059;-57
2023/10/26 03:55:34;;;;;;;37.57;18.70;;;;;;;14.14;100.00;100295.88;4900979;28;20964;-59
2023/10/26 03:58:04;;;;;;;35.23;20.03;;;;;;;14.23;100.00;100290.34;4910346;28;20705;-58
2023/10/26 04:00:35;;;;;;;45.33;22.03;;;;;;;14.23;99.40;100290.34;4900956;28;20883;-58
2023/10/26 04:03:06;;;;;;;39.90;20.27;;;;;;;14.23;99.36;100292.97;4909926;28;20311;-58
2023/10/26 04:05:36;;;;;;;38.13;18.50;;;;;;;14.31;99.66;100291.88;4901125;28;20634;-58
2023/10/26 04:08:09;;;;;;;34.10;18.07;;;;;;;14.34;99.43;100297.03;4917359;28;20296;-58
2023/10/26 04:10:40;;;;;;;29.97;18.00;;;;;;;14.26;98.74;100288.53;4915527;28;21170;-57
2023/10/26 04:13:10;;;;;;;32.40;18.93;;;;;;;14.18;98.58;100281.72;4929117;28;20290;-58
2023/10/26 04:15:41;;;;;;;35.23;18.07;;;;;;;14.18;98.43;100286.13;4918821;28;20848;-57
2023/10/26 04:18:11;;;;;;;34.80;17.87;;;;;;;14.16;98.43;100286.19;4928676;28;20683;-58
2023/10/26 04:20:43;;;;;;;31.80;18.77;;;;;;;14.13;98.45;100288.06;4926554;28;20283;-58
2023/10/26 04:23:16;;;;;;;27.40;17.90;;;;;;;14.08;98.58;100279.41;4931436;28;20764;-59
2023/10/26 04:25:48;;;;;;;30.73;18.47;;;;;;;14.08;98.82;100285.56;4936210;28;20329;-57
2023/10/26 04:28:24;;;;;;;34.10;19.07;;;;;;;13.97;98.63;100283.22;4924615;28;21058;-59
2023/10/26 04:30:54;;;;;;;31.73;18.27;;;;;;;13.82;98.81;100274.03;4927456;28;20302;-59
2023/10/26 04:33:25;;;;;;;32.83;18.67;;;;;;;13.80;99.34;100281.13;4926388;28;20341;-58
2023/10/26 04:35:55;;;;;;;24.70;16.23;;;;;;;13.93;99.73;100280.78;4938136;28;20779;-59
2023/10/26 04:38:28;;;;;;;28.20;17.80;;;;;;;14.12;99.70;100271.41;4925102;28;20685;-58
2023/10/26 04:40:59;;;;;;;29.63;16.90;;;;;;;14.29;99.24;100267.41;4937147;28;20784;-58
2023/10/26 04:43:29;;;;;;;29.60;17.77;;;;;;;14.39;98.50;100274.09;4925483;28;20843;-58
2023/10/26 04:46:00;;;;;;;27.60;16.93;;;;;;;14.47;97.92;100272.06;4927923;28;20653;-58
2023/10/26 04:48:31;;;;;;;29.37;17.70;;;;;;;14.52;96.89;100272.75;4918476;28;20326;-58
2023/10/26 04:51:02;;;;;;;38.57;16.93;;;;;;;14.51;96.75;100257.06;4928359;28;20286;-58
2023/10/26 04:53:34;;;;;;;25.60;15.27;;;;;;;14.55;97.02;100259.56;4918711;28;20305;-59
2023/10/26 04:56:04;;;;;;;31.20;16.67;;;;;;;14.59;96.68;100261.19;4929161;28;20307;-58
2023/10/26 04:58:35;;;;;;;37.13;15.90;;;;;;;14.63;97.12;100257.53;4917189;28;20291;-59
2023/10/26 05:01:08;;;;;;;28.97;15.73;;;;;;;14.69;96.90;100263.50;4934860;28;20778;-59
2023/10/26 05:03:39;;;;;;;31.20;16.63;;;;;;;14.62;96.06;100261.06;4924184;28;20376;-59
2023/10/26 05:06:09;;;;;;;28.70;16.67;;;;;;;14.46;96.02;100252.78;4935888;28;20933;-59
2023/10/26 05:08:41;;;;;;;29.87;16.00;;;;;;;14.31;96.81;100249.81;4923692;28;20322;-59
2023/10/26 05:11:12;;;;;;;31.93;16.37;;;;;;;14.42;97.66;100258.19;4936791;28;20384;-58
2023/10/26 05:13:42;;;;;;;29.60;15.83;;;;;;;14.43;97.43;100254.69;4916897;28;20405;-58
2023/10/26 05:16:13;;;;;;;32.20;17.00;;;;;;;14.44;97.69;100256.38;4930170;28;20393;-59
2023/10/26 05:18:43;;;;;;;32.10;15.47;;;;;;;14.48;97.92;100252.75;4931331;28;20302;-58
2023/10/26 05:21:14;;;;;;;34.40;17.77;;;;;;;14.42;97.56;100242.44;4933492;28;20274;-58
2023/10/26 05:23:47;;;;;;;28.13;15.17;;;;;;;14.33;97.72;100253.25;4936950;28;20295;-58
2023/10/26 05:26:17;;;;;;;28.03;14.77;;;;;;;14.26;98.09;100247.34;4924018;28;20385;-59
2023/10/26 05:28:48;;;;;;;28.27;14.47;;;;;;;14.14;98.19;100242.47;4938090;28;20326;-57
2023/10/26 05:31:19;;;;;;;23.67;14.67;;;;;;;14.01;98.57;100247.25;4926946;28;20290;-59
2023/10/26 05:33:49;;;;;;;27.57;14.57;;;;;;;13.93;99.37;100251.88;4935538;28;20286;-58
2023/10/26 05:36:20;;;;;;;23.27;14.57;;;;;;;13.84;99.75;100255.63;4926499;28;20290;-59
2023/10/26 05:38:52;;;;;;;21.00;13.27;;;;;;;13.72;100.00;100251.59;4937311;28;20835;-59
2023/10/26 05:41:22;;;;;;;21.27;12.47;;;;;;;13.69;100.00;100256.94;4926569;28;20409;-58
2023/10/26 05:43:54;;;;;;;22.07;11.73;;;;;;;13.65;100.00;100257.06;4934442;28;20366;-59
2023/10/26 05:46:24;;;;;;;21.67;12.37;;;;;;;13.67;100.00;100258.75;4926741;28;20287;-59
2023/10/26 05:48:55;;;;;;;26.47;12.40;;;;;;;13.76;100.00;100260.25;4933359;28;20298;-60
2023/10/26 05:51:25;;;;;;;28.07;12.47;;;;;;;13.81;100.00;100256.56;4925916;28;20827;-60
2023/10/26 05:53:58;;;;;;;26.20;13.30;;;;;;;13.87;100.00;100255.53;4933446;28;20358;-60
2023/10/26 05:56:29;;;;;;;22.60;12.80;;;;;;;13.98;100.00;100252.59;4925809;28;20291;-59
2023/10/26 05:58:59;;;;;;;22.00;12.27;;;;;;;14.12;100.00;100255.63;4937235;28;20385;-59
2023/10/26 06:01:30;;;;;;;22.43;11.53;;;;;;;14.20;100.00;100253.66;4924429;28;20439;-59
2023/10/26 06:04:00;;;;;;;21.40;11.27;;;;;;;14.23;100.00;100258.81;4934106;28;20369;-58
2023/10/26 06:06:31;;;;;;;13.47;8.50;;;;;;;14.20;98.54;100253.66;4926845;28;20780;-59
2023/10/26 06:09:03;;;;;;;16.07;8.33;;;;;;;14.11;97.57;100248.66;4927559;28;20302;-59
2023/10/26 06:11:34;;;;;;;16.43;7.57;;;;;;;14.04;97.23;100247.13;4921756;28;20300;-60
2023/10/26 06:14:04;;;;;;;13.80;7.00;;;;;;;13.98;97.55;100252.59;4935203;28;20335;-60
2023/10/26 06:16:35;;;;;;;13.23;7.33;;;;;;;13.81;97.66;100240.81;4927365;28;20310;-60
2023/10/26 06:19:05;;;;;;;14.60;8.40;;;;;;;13.78;98.37;100251.41;4936368;28;20298;-60
2023/10/26 06:21:36;;;;;;;14.83;7.83;;;;;;;13.69;98.35;100256.09;4923300;28;20756;-60
2023/10/26 06:24:11;;;;;;;13.77;8.10;;;;;;;13.61;98.70;100258.94;4934901;28;20279;-59
2023/10/26 06:26:41;;;;;;;21.47;8.97;;;;;;;13.48;99.41;100247.03;4925088;28;20294;-59
2023/10/26 06:29:12;;;;;;;15.47;7.73;;;;;;;13.44;99.56;100267.28;4935224;28;21227;-59
2023/10/26 06:31:42;;;;;;;11.20;6.90;;;;;;;13.36;99.34;100259.63;4925382;28;20361;-59
2023/10/26 06:34:12;;;;;;;17.60;8.20;;;;;;;13.32;99.30;100263.22;4936847;28;20299;-60
2023/10/26 06:36:43;;;;;;;11.93;8.30;;;;;;;13.27;99.59;100261.63;4925433;28;20297;-60
2023/10/26 06:39:15;;;;;;;14.17;7.90;;;;;;;13.23;100.00;100263.47;4931720;28;20370;-60
2023/10/26 06:41:45;;;;;;;12.13;7.63;;;;;;;13.15;100.00;100265.41;4929936;28;20271;-59
2023/10/26 06:44:16;;;;;;;14.37;8.07;;;;;;;13.06;100.00;100261.28;4916914;28;20381;-60
2023/10/26 06:46:46;;;;;;;15.33;8.33;;;;;;;13.00;100.00;100250.09;4927315;28;20316;-60
2023/10/26 06:49:17;;;;;;;17.23;9.73;;;;;;;12.94;100.00;100251.97;4916854;28;20377;-61
2023/10/26 06:51:59;;;;;;;14.77;8.97;;;;;;;12.88;100.00;100249.53;4927020;28;20283;-60
2023/10/26 06:54:32;;;;;;;13.70;9.03;;;;;;;12.79;100.00;100247.13;4917043;28;20295;-59
2023/10/26 06:57:02;;;;;;;16.33;11.27;;;;;;;12.72;100.00;100251.66;4926595;28;20681;-59
2023/10/26 06:59:32;;;;;;;18.70;11.30;;;;;;;12.66;100.00;100250.97;4922893;28;20385;-59
2023/10/26 07:02:03;;;;;;;16.17;11.20;;;;;;;12.59;100.00;100254.66;4938453;28;20899;-58
2023/10/26 07:04:40;;;;;;;22.40;12.15;;;;;;;12.46;100.00;100244.47;4925110;28;20318;-59
2023/10/26 07:07:11;;;;;;;19.33;12.00;;;;;;;12.32;100.00;100236.06;4937380;28;20051;-59
2023/10/26 07:09:43;;;;;;;17.33;11.53;;;;;;;12.30;100.00;100248.34;4918025;28;20078;-59
2023/10/26 07:12:14;;;;;;;16.05;11.57;;;;;;;12.22;100.00;100245.03;4922707;28;20282;-59
2023/10/26 07:14:44;;;;;;;24.90;11.75;;;;;;;12.11;100.00;100247.91;4929862;28;20539;-59
2023/10/26 07:17:14;;;;;;;17.70;11.18;;;;;;;11.99;100.00;100246.44;4922175;28;20043;-60
2023/10/26 07:19:45;;;;;;;17.60;11.65;;;;;;;11.92;100.00;100247.47;4930305;28;20047;-60
2023/10/26 07:22:15;;;;;;;17.58;11.85;;;;;;;11.89;100.00;100247.53;4919997;28;20123;-59
2023/10/26 07:24:47;;;;;;;18.92;13.18;;;;;;;11.82;100.00;100240.69;4929773;28;20393;-59
2023/10/26 07:27:18;;;;;;;21.60;14.05;;;;;;;11.74;100.00;100238.22;4931790;28;20055;-59
2023/10/26 07:29:48;;;;;;;27.92;14.75;;;;;;;11.67;100.00;100241.88;4949016;28;20119;-59
2023/10/26 07:32:19;;;;;;;23.42;13.38;;;;;;;11.63;100.00;100246.31;4939037;28;20047;-59
2023/10/26 07:34:49;;;;;;;24.52;13.63;;;;;;;11.58;100.00;100242.94;4949492;28;20061;-58
2023/10/26 07:37:19;;;;;;;20.60;12.50;;;;;;;11.51;100.00;100245.72;4936850;28;20066;-59
2023/10/26 07:39:51;;;;;;;25.13;12.20;;;;;;;11.41;100.00;100247.66;4929346;28;20051;-60
2023/10/26 07:42:42;;;;;;;24.33;13.23;;;;;;;11.33;100.00;100252.16;4919006;28;20051;-59
2023/10/26 07:45:12;;;;;;;26.25;14.20;;;;;;;11.27;100.00;100244.44;4929187;28;20077;-59
2023/10/26 07:47:43;;;;;;;33.08;15.40;;;;;;;11.21;100.00;100254.13;4918878;28;20470;-59
2023/10/26 07:50:16;;;;;;;27.58;15.13;;;;;;;11.15;100.00;100258.59;4928225;28;20055;-60
2023/10/26 07:52:47;;;;;;;25.45;14.93;;;;;;;11.06;100.00;100259.66;4929125;28;20122;-59
2023/10/26 07:55:19;;;;;;;28.88;16.58;;;;;;;11.00;100.00;100262.34;4919355;28;20059;-59
2023/10/26 07:57:50;;;;;;;37.88;17.45;;;;;;;10.96;100.00;100258.94;4928879;28;20109;-59
2023/10/26 08:00:20;;;;;;;26.67;15.60;;;;;;;10.90;100.00;100260.81;4919014;28;20067;-59
2023/10/26 08:02:51;;;;;;;26.42;16.48;;;;;;;10.88;100.00;100265.19;4928734;28;20945;-58
2023/10/26 08:05:22;;;;;;;25.02;17.17;;;;;;;10.84;100.00;100264.38;4919042;28;20122;-59
2023/10/26 08:07:53;;;;;;;27.88;17.75;;;;;;;10.83;100.00;100261.78;4929171;28;20065;-59
2023/10/26 08:10:25;;;;;;;31.05;18.45;;;;;;;10.78;100.00;100265.38;4919369;28;20055;-60
2023/10/26 08:12:56;;;;;;;29.25;19.17;;;;;;;10.75;100.00;100268.00;4929242;28;20070;-59
2023/10/26 08:15:26;;;;;;;36.28;19.23;;;;;;;10.73;100.00;100267.19;4919544;28;20055;-58
2023/10/26 08:18:17;;;;;;;31.10;19.50;;;;;;;10.69;100.00;100265.50;4919131;28;20051;-59
2023/10/26 08:20:52;;;;;;;35.58;20.40;;;;;;;10.60;100.00;100260.44;4928853;28;20059;-59
2023/10/26 08:23:22;;;;;;;36.25;23.23;;;;;;;10.64;100.00;100263.88;4919496;28;20087;-59
2023/10/26 08:25:54;;;;;;;30.10;22.02;;;;;;;10.39;100.00;100239.91;4929858;28;20062;-60
2023/10/26 08:28:25;;;;;;;34.67;19.88;;;;;;;10.62;100.00;100274.34;4938324;28;20061;-59
2023/10/26 08:30:55;;;;;;;29.52;19.63;;;;;;;10.64;100.00;100267.34;4948031;28;20058;-59
2023/10/26 08:33:26;;;;;;;33.83;19.83;;;;;;;10.65;100.00;100269.06;4938083;28;20047;-59
2023/10/26 08:35:56;;;;;;;29.00;20.15;;;;;;;10.70;100.00;100272.47;4928918;28;20078;-58
2023/10/26 08:38:27;;;;;;;37.50;20.52;;;;;;;10.74;100.00;100268.91;4917827;28;20445;-62
2023/10/26 08:40:59;;;;;;;29.85;19.40;;;;;;;10.76;100.00;100272.38;4936846;28;20047;-60
2023/10/26 08:43:30;;;;;;;35.92;22.80;;;;;;;10.74;100.00;100255.84;4923118;28;20055;-61
2023/10/26 08:46:01;;;;;;;32.97;21.48;;;;;;;10.74;100.00;100255.84;4936877;28;20642;-60
2023/10/26 08:48:38;;;;;;;34.75;21.90;;;;;;;10.78;100.00;100265.38;4925419;28;20198;-59
2023/10/26 08:51:09;;;;;;;31.77;21.52;;;;;;;10.77;100.00;100263.63;4933906;28;20051;-60
2023/10/26 08:53:39;;;;;;;36.28;21.98;;;;;;;10.76;100.00;100256.69;4926947;28;20114;-61
2023/10/26 08:56:15;;;;;;;31.08;22.10;;;;;;;10.56;100.00;100222.19;4928942;28;20495;-60
2023/10/26 08:58:45;;;;;;;34.00;23.67;;;;;;;10.79;100.00;100269.69;4918529;28;20811;-60
2023/10/26 09:01:16;;;;;;;35.80;22.38;;;;;;;10.82;100.00;100265.31;4917891;28;20069;-60
2023/10/26 09:03:47;;;;;;;33.70;22.85;;;;;;;10.78;100.00;100254.91;4919309;28;20508;-60
2023/10/26 09:06:17;;;;;;;38.42;25.10;;;;;;;10.79;100.00;100263.63;4918640;28;20054;-60
2023/10/26 09:09:02;;;;;;;46.33;29.63;;;;;;;10.77;100.00;100266.25;4928000;28;20138;-60
2023/10/26 09:11:33;;;;;;;47.67;30.58;;;;;;;10.76;100.00;100272.38;4918415;28;20065;-58
2023/10/26 09:14:15;;;;;;;48.90;30.23;;;;;;;10.72;100.00;100270.69;4928156;28;20069;-59
2023/10/26 09:16:46;;;;;;;43.42;27.52;;;;;;;10.71;100.00;100274.19;4917737;28;20133;-59
2023/10/26 09:19:18;;;;;;;48.30;29.00;;;;;;;10.71;100.00;100268.97;4917914;28;20078;-59
2023/10/26 09:21:53;;;;;;;51.75;30.15;;;;;;;10.68;100.00;100265.53;4933460;28;20489;-59
2023/10/26 09:24:26;;;;;;;43.35;27.85;;;;;;;10.58;100.00;100251.75;4926595;28;20145;-60
2023/10/26 09:27:00;;;;;;;41.22;29.15;;;;;;;10.66;100.00;100273.41;4931575;28;20051;-59
2023/10/26 09:29:48;;;;;;;47.75;30.55;;;;;;;10.61;100.00;100267.41;4912672;28;20090;-62
2023/10/26 09:32:19;;;;;;;52.22;29.73;;;;;;;10.60;100.00;100263.03;4913432;28;20055;-61
2023/10/26 09:34:49;;;;;;;46.40;28.35;;;;;;;10.59;100.00;100263.94;4923354;28;20070;-61
2023/10/26 09:37:20;;;;;;;45.28;29.00;;;;;;;10.60;100.00;100268.28;4913336;28;20529;-60
2023/10/26 09:39:51;;;;;;;43.30;28.02;;;;;;;10.59;100.00;100258.72;4922301;28;20055;-61
2023/10/26 09:42:44;;;;;;;43.63;28.70;;;;;;;10.57;100.00;100260.50;4911775;28;20055;-62
2023/10/26 09:45:14;;;;;;;43.88;29.13;;;;;;;10.58;100.00;100256.97;4915963;28;20051;-62
2023/10/26 09:47:46;;;;;;;39.97;28.40;;;;;;;10.54;100.00;100255.31;4921573;28;20142;-62
2023/10/26 09:50:17;;;;;;;43.65;28.00;;;;;;;10.51;100.00;100255.38;4912512;28;20066;-61
2023/10/26 09:52:48;;;;;;;43.70;28.27;;;;;;;10.47;100.00;100261.53;4922506;28;20401;-60
2023/10/26 09:55:20;;;;;;;39.75;28.77;;;;;;;10.47;100.00;100274.59;4911724;28;20043;-62
2023/10/26 09:57:57;;;;;;;45.38;28.45;;;;;;;10.47;100.00;100266.75;4922160;28;20070;-62
2023/10/26 10:00:34;;;;;;;46.78;29.58;;;;;;;10.48;100.00;100271.09;4911954;28;20104;-62
2023/10/26 10:03:14;;;;;;;41.92;28.17;;;;;;;10.47;100.00;100264.13;4921417;28;20473;-62
2023/10/26 10:05:47;;;;;;;43.33;28.40;;;;;;;10.50;100.00;100266.69;4912062;28;20073;-61
2023/10/26 10:08:56;;;;;;;40.33;29.05;;;;;;;10.51;100.00;100271.06;4911907;28;20055;-61
2023/10/26 10:11:26;;;;;;;39.42;25.95;;;;;;;10.47;100.00;100269.38;4912120;28;20086;-62
2023/10/26 10:13:58;;;;;;;39.95;27.13;;;;;;;10.45;100.00;100276.38;4920709;28;20062;-61
2023/10/26 10:16:53;;;;;;;41.97;26.58;;;;;;;10.45;100.00;100266.75;4910812;28;20142;-61
2023/10/26 10:19:26;;;;;;;33.95;23.92;;;;;;;10.41;100.00;100264.22;4911611;28;20501;-61
2023/10/26 10:21:56;;;;;;;38.90;24.77;;;;;;;10.41;100.00;100269.44;4920962;28;20062;-61
2023/10/26 10:24:54;;;;;;;37.47;21.88;;;;;;;10.36;100.00;100267.78;4911463;28;20142;-61
2023/10/26 10:27:25;;;;;;;35.83;22.92;;;;;;;10.32;100.00;100276.53;4883134;28;20085;-61
2023/10/26 10:30:00;;;;;;;30.13;20.48;;;;;;;10.30;100.00;100278.31;4921203;28;20094;-61
2023/10/26 10:32:58;;;;;;;33.30;22.48;;;;;;;10.24;100.00;100273.16;4911328;28;20548;-60
2023/10/26 10:35:43;;;;;;;32.75;21.85;;;;;;;10.18;100.00;100281.06;4883988;28;20134;-61
2023/10/26 10:38:24;;;;;;;30.58;21.48;;;;;;;10.10;100.00;100281.19;4918351;28;20058;-61
2023/10/26 10:41:14;;;;;;;30.58;21.25;;;;;;;9.74;100.00;100225.16;4921370;28;20054;-61
2023/10/26 10:43:47;;;;;;;31.63;21.00;;;;;;;10.04;100.00;100269.97;4911186;28;20066;-61
2023/10/26 10:46:21;;;;;;;31.38;21.75;;;;;;;10.07;100.00;100276.00;4911258;28;20090;-60
2023/10/26 10:49:05;;;;;;;36.35;21.83;;;;;;;10.11;100.00;100271.63;4920915;28;20146;-61
2023/10/26 10:51:38;;;;;;;28.52;20.25;;;;;;;10.08;100.00;100266.44;4911824;28;20775;-60
2023/10/26 10:54:11;;;;;;;31.85;21.02;;;;;;;10.04;100.00;100265.63;4921312;28;20059;-61
2023/10/26 10:57:06;;;;;;;38.40;21.52;;;;;;;9.76;100.00;100226.00;4920520;28;20190;-61
2023/10/26 10:59:37;;;;;;;39.08;23.77;;;;;;;10.05;100.00;100266.47;4910517;28;20066;-61
2023/10/26 11:02:11;;;;;;;27.30;20.75;;;;;;;10.04;100.00;100264.75;4921989;28;20053;-61
2023/10/26 11:04:55;;;;;;;30.83;21.77;;;;;;;10.04;100.00;100264.75;4911641;28;20147;-60
2023/10/26 11:07:47;;;;;;;33.08;21.65;;;;;;;9.96;100.00;100256.16;4910939;28;20359;-61
2023/10/26 11:10:20;;;;;;;32.55;22.77;;;;;;;10.04;100.00;100264.75;4911203;28;20588;-60
2023/10/26 11:12:54;;;;;;;34.83;22.35;;;;;;;10.02;100.00;100271.75;4921256;28;20062;-61
2023/10/26 11:15:33;;;;;;;32.85;21.95;;;;;;;10.06;100.00;100269.06;4910748;28;20062;-61
2023/10/26 11:18:08;;;;;;;35.10;21.20;;;;;;;10.03;100.00;100276.06;4920717;28;20462;-61
2023/10/26 11:20:41;;;;;;;31.10;21.38;;;;;;;9.98;100.00;100275.28;4906753;28;20661;-61
2023/10/26 11:23:13;;;;;;;30.98;20.70;;;;;;;9.96;100.00;100277.03;4921283;28;20058;-60
2023/10/26 11:25:44;;;;;;;33.40;22.23;;;;;;;9.98;100.00;100275.28;4910189;28;20150;-60
2023/10/26 11:28:15;;;;;;;32.63;21.88;;;;;;;9.99;100.00;100271.78;4911028;28;20055;-60